La rose des vents
Donnes mto: Semaine 12/05/08 - 18/05/08 (S 20)
Date Horaire Temp. E. Hum. E. P.atmo. Pluie Vent 1mn Direction Ensoleilleme Ev.Tr. Solaire P. de rose Temp au vent Rafales
12/05/2008 00:00 14,8 C 69 % 1012,9 hPa 0,0 l/m 1,3 km/h (1 Bft) SO 0,00 h 0,051 mm 0 W/m 9,1 C 14,8 C 2,5 km/h (1 Bft)
12/05/2008 01:00 14,4 C 69 % 1013,3 hPa 0,0 l/m 3,7 km/h (1 Bft) N 0,00 h 0,025 mm 0 W/m 8,9 C 14,4 C 6,2 km/h (2 Bft)
12/05/2008 02:00 14,6 C 70 % 1012,9 hPa 0,2 l/m 3,7 km/h (1 Bft) N 0,00 h 0,051 mm 0 W/m 9,2 C 14,6 C 6,7 km/h (2 Bft)
12/05/2008 03:00 14,5 C 75 % 1012,3 hPa 0,0 l/m 2,5 km/h (1 Bft) N 0,00 h 0,051 mm 0 W/m 10,2 C 14,5 C 4,5 km/h (1 Bft)
12/05/2008 04:00 14,8 C 71 % 1012,2 hPa 0,0 l/m 2,7 km/h (1 Bft) N 0,00 h 0,025 mm 0 W/m 9,5 C 14,8 C 5,2 km/h (1 Bft)
12/05/2008 05:00 15,2 C 66 % 1012,0 hPa 0,2 l/m 4,3 km/h (1 Bft) N 0,00 h 0,025 mm 0 W/m 8,8 C 15,2 C 8,1 km/h (2 Bft)
12/05/2008 06:00 14,3 C 72 % 1012,0 hPa 0,4 l/m 7,8 km/h (2 Bft) NO 0,00 h 0,025 mm 13 W/m 9,3 C 14,3 C 12,2 km/h (2 Bft)
12/05/2008 07:00 14,4 C 73 % 1012,2 hPa 0,0 l/m 4,1 km/h (1 Bft) NE 0,00 h 0,051 mm 31 W/m 9,6 C 14,4 C 6,3 km/h (2 Bft)
12/05/2008 08:00 14,9 C 69 % 1012,5 hPa 0,0 l/m 2,5 km/h (1 Bft) N 0,00 h 0,025 mm 48 W/m 9,4 C 14,9 C 4,7 km/h (1 Bft)
12/05/2008 09:00 16,0 C 67 % 1012,9 hPa 0,0 l/m 4,5 km/h (1 Bft) NE 0,00 h 0,051 mm 174 W/m 9,9 C 16,0 C 6,5 km/h (2 Bft)
12/05/2008 10:00 18,3 C 61 % 1012,9 hPa 0,0 l/m 3,9 km/h (1 Bft) E-NE 0,48 h 0,127 mm 398 W/m 10,5 C 18,3 C 6,8 km/h (2 Bft)
12/05/2008 11:00 21,5 C 44 % 1012,4 hPa 0,0 l/m 18,2 km/h (3 Bft) E-NE 1,00 h 0,254 mm 768 W/m 8,5 C 21,5 C 25,5 km/h (4 Bft)
12/05/2008 12:00 20,8 C 41 % 1012,3 hPa 0,0 l/m 26,1 km/h (4 Bft) E-NE 0,85 h 0,610 mm 541 W/m 7,1 C 20,8 C 35,8 km/h (5 Bft)
12/05/2008 13:00 20,3 C 45 % 1012,1 hPa 0,0 l/m 27,3 km/h (4 Bft) E-NE 0,43 h 0,533 mm 501 W/m 8,0 C 20,3 C 37,8 km/h (5 Bft)
12/05/2008 14:00 20,7 C 43 % 1011,9 hPa 0,0 l/m 27,4 km/h (4 Bft) E-NE 0,60 h 0,508 mm 581 W/m 7,6 C 20,7 C 37,6 km/h (5 Bft)
12/05/2008 15:00 19,7 C 48 % 1011,7 hPa 0,0 l/m 25,6 km/h (4 Bft) E-NE 0,00 h 0,559 mm 289 W/m 8,3 C 19,7 C 34,9 km/h (5 Bft)
12/05/2008 16:00 17,5 C 70 % 1012,4 hPa 0,0 l/m 17,8 km/h (3 Bft) E 0,00 h 0,356 mm 237 W/m 11,9 C 17,5 C 25,8 km/h (4 Bft)
12/05/2008 17:00 16,2 C 71 % 1013,0 hPa 0,0 l/m 17,2 km/h (3 Bft) E-NE 0,00 h 0,203 mm 123 W/m 10,9 C 16,2 C 23,5 km/h (4 Bft)
12/05/2008 18:00 15,5 C 74 % 1013,1 hPa 0,0 l/m 19,9 km/h (4 Bft) E-NE 0,00 h 0,152 mm 77 W/m 11,0 C 15,5 C 27,9 km/h (4 Bft)
12/05/2008 19:00 15,0 C 77 % 1013,2 hPa 0,0 l/m 18,0 km/h (3 Bft) E-NE 0,00 h 0,127 mm 22 W/m 11,0 C 15,0 C 25,0 km/h (4 Bft)
12/05/2008 20:00 14,1 C 83 % 1013,6 hPa 0,0 l/m 14,0 km/h (3 Bft) E-NE 0,00 h 0,076 mm 8 W/m 11,2 C 14,1 C 19,8 km/h (4 Bft)
12/05/2008 21:00 13,5 C 87 % 1013,6 hPa 0,2 l/m 3,4 km/h (1 Bft) NO 0,00 h 0,051 mm 0 W/m 11,3 C 13,5 C 5,5 km/h (1 Bft)
12/05/2008 22:00 13,1 C 89 % 1013,4 hPa 0,8 l/m 8,0 km/h (2 Bft) N 0,00 h 0,025 mm 0 W/m 11,3 C 13,1 C 13,2 km/h (3 Bft)
12/05/2008 23:00 12,5 C 89 % 1012,6 hPa 0,4 l/m 7,1 km/h (2 Bft) N 0,00 h 0,025 mm 0 W/m 10,7 C 12,5 C 12,4 km/h (3 Bft)
13/05/2008 00:00 12,7 C 88 % 1012,3 hPa 0,2 l/m 5,1 km/h (1 Bft) NE 0,00 h 0,025 mm 0 W/m 10,7 C 12,7 C 8,2 km/h (2 Bft)
13/05/2008 01:00 12,8 C 86 % 1012,0 hPa 0,0 l/m 3,3 km/h (1 Bft) N 0,00 h 0,025 mm 0 W/m 10,5 C 12,8 C 5,9 km/h (2 Bft)
13/05/2008 02:00 13,0 C 85 % 1011,7 hPa 0,2 l/m 5,7 km/h (1 Bft) N 0,00 h 0,025 mm 0 W/m 10,5 C 13,0 C 10,1 km/h (2 Bft)
13/05/2008 03:00 13,7 C 77 % 1011,3 hPa 0,0 l/m 6,2 km/h (2 Bft) N-NE 0,00 h 0,025 mm 0 W/m 9,8 C 13,7 C 10,4 km/h (2 Bft)
13/05/2008 04:00 13,8 C 75 % 1011,2 hPa 0,0 l/m 5,5 km/h (1 Bft) N-NE 0,00 h 0,025 mm 0 W/m 9,4 C 13,8 C 8,9 km/h (2 Bft)
13/05/2008 05:00 13,7 C 76 % 1011,1 hPa 0,0 l/m 3,7 km/h (1 Bft) N 0,00 h 0,025 mm 0 W/m 9,5 C 13,7 C 6,5 km/h (2 Bft)
13/05/2008 06:00 13,8 C 75 % 1010,9 hPa 0,0 l/m 2,1 km/h (1 Bft) N-NE 0,00 h 0,025 mm 7 W/m 9,5 C 13,8 C 3,7 km/h (1 Bft)
13/05/2008 07:00 13,9 C 75 % 1011,2 hPa 0,0 l/m 2,1 km/h (1 Bft) N-NE 0,00 h 0,025 mm 19 W/m 9,6 C 13,9 C 4,1 km/h (1 Bft)
13/05/2008 08:00 13,7 C 79 % 1011,4 hPa 0,2 l/m 8,3 km/h (2 Bft) O-NO 0,00 h 0,025 mm 63 W/m 10,1 C 13,7 C 11,9 km/h (2 Bft)
13/05/2008 09:00 14,3 C 78 % 1011,3 hPa 0,0 l/m 2,2 km/h (1 Bft) N-NO 0,00 h 0,051 mm 77 W/m 10,5 C 14,3 C 4,5 km/h (1 Bft)
13/05/2008 10:00 15,5 C 75 % 1011,1 hPa 0,0 l/m 1,8 km/h (1 Bft) N-NE 0,00 h 0,051 mm 121 W/m 11,0 C 15,5 C 3,9 km/h (1 Bft)
13/05/2008 11:00 16,0 C 77 % 1011,5 hPa 0,2 l/m 1,9 km/h (1 Bft) O 0,00 h 0,076 mm 258 W/m 12,0 C 16,0 C 3,1 km/h (1 Bft)
13/05/2008 12:00 17,0 C 73 % 1011,1 hPa 0,0 l/m 7,4 km/h (2 Bft) O-SO 0,00 h 0,152 mm 314 W/m 12,1 C 17,0 C 10,1 km/h (2 Bft)
13/05/2008 13:00 18,5 C 64 % 1010,8 hPa 0,0 l/m 7,7 km/h (2 Bft) O-SO 0,12 h 0,203 mm 427 W/m 11,5 C 18,5 C 10,4 km/h (2 Bft)
13/05/2008 14:00 19,3 C 57 % 1010,5 hPa 0,0 l/m 5,1 km/h (1 Bft) O 0,17 h 0,279 mm 389 W/m 10,5 C 19,3 C 7,5 km/h (2 Bft)
13/05/2008 15:00 21,3 C 47 % 1010,2 hPa 0,0 l/m 1,4 km/h (1 Bft) N 0,90 h 0,254 mm 633 W/m 9,6 C 21,3 C 3,6 km/h (1 Bft)
13/05/2008 16:00 22,0 C 44 % 1009,7 hPa 0,0 l/m 2,4 km/h (1 Bft) SE 0,73 h 0,381 mm 490 W/m 9,0 C 22,0 C 4,8 km/h (1 Bft)
13/05/2008 17:00 21,8 C 42 % 1009,7 hPa 0,0 l/m 4,0 km/h (1 Bft) E-SE 0,80 h 0,330 mm 419 W/m 8,1 C 21,8 C 7,4 km/h (2 Bft)
13/05/2008 18:00 20,9 C 46 % 1009,8 hPa 0,0 l/m 3,9 km/h (1 Bft) SE 0,73 h 0,279 mm 252 W/m 8,8 C 20,9 C 5,9 km/h (2 Bft)
13/05/2008 19:00 20,4 C 50 % 1009,9 hPa 0,0 l/m 5,0 km/h (1 Bft) SO 0,93 h 0,178 mm 161 W/m 9,5 C 20,4 C 7,1 km/h (2 Bft)
13/05/2008 20:00 18,0 C 60 % 1010,3 hPa 0,0 l/m 5,4 km/h (1 Bft) S-SO 0,05 h 0,127 mm 26 W/m 10,0 C 18,0 C 7,1 km/h (2 Bft)
13/05/2008 21:00 16,9 C 61 % 1010,8 hPa 0,0 l/m 4,7 km/h (1 Bft) O-SO 0,00 h 0,051 mm 0 W/m 9,4 C 16,9 C 6,1 km/h (2 Bft)
13/05/2008 22:00 15,8 C 63 % 1011,5 hPa 0,0 l/m 2,5 km/h (1 Bft) N-NO 0,00 h 0,025 mm 0 W/m 8,8 C 15,8 C 3,7 km/h (1 Bft)
13/05/2008 23:00 15,4 C 63 % 1011,5 hPa 0,0 l/m 2,7 km/h (1 Bft) NO 0,00 h 0,051 mm 0 W/m 8,4 C 15,4 C 4,2 km/h (1 Bft)
14/05/2008 00:00 14,8 C 64 % 1011,6 hPa 0,0 l/m 3,7 km/h (1 Bft) NO 0,00 h 0,051 mm 0 W/m 8,1 C 14,8 C 5,7 km/h (1 Bft)
14/05/2008 01:00 14,4 C 64 % 1011,5 hPa 0,0 l/m 3,9 km/h (1 Bft) O-NO 0,00 h 0,051 mm 0 W/m 7,8 C 14,4 C 5,9 km/h (2 Bft)
14/05/2008 02:00 13,9 C 64 % 1011,3 hPa 0,0 l/m 3,7 km/h (1 Bft) NO 0,00 h 0,051 mm 0 W/m 7,1 C 13,9 C 6,1 km/h (2 Bft)
14/05/2008 03:00 14,1 C 60 % 1011,3 hPa 0,0 l/m 4,0 km/h (1 Bft) NO 0,00 h 0,051 mm 0 W/m 6,6 C 14,1 C 5,9 km/h (2 Bft)
14/05/2008 04:00 14,1 C 58 % 1011,3 hPa 0,0 l/m 4,8 km/h (1 Bft) O-NO 0,00 h 0,051 mm 0 W/m 5,8 C 14,1 C 7,1 km/h (2 Bft)
14/05/2008 05:00 13,6 C 58 % 1011,3 hPa 0,0 l/m 4,0 km/h (1 Bft) O-NO 0,00 h 0,051 mm 0 W/m 5,6 C 13,6 C 6,1 km/h (2 Bft)
14/05/2008 06:00 13,9 C 55 % 1011,8 hPa 0,0 l/m 4,5 km/h (1 Bft) O-NO 0,02 h 0,025 mm 18 W/m 5,2 C 13,9 C 5,9 km/h (2 Bft)
14/05/2008 07:00 14,8 C 55 % 1012,2 hPa 0,0 l/m 2,8 km/h (1 Bft) O-NO 0,48 h 0,051 mm 119 W/m 5,9 C 14,8 C 5,0 km/h (1 Bft)
14/05/2008 08:00 18,2 C 49 % 1012,4 hPa 0,0 l/m 1,3 km/h (1 Bft) O-NO 1,00 h 0,076 mm 333 W/m 7,4 C 18,2 C 2,7 km/h (1 Bft)
14/05/2008 09:00 20,8 C 44 % 1012,7 hPa 0,0 l/m 2,5 km/h (1 Bft) E 1,00 h 0,203 mm 509 W/m 8,1 C 20,8 C 4,1 km/h (1 Bft)
14/05/2008 10:00 21,9 C 43 % 1012,8 hPa 0,0 l/m 5,5 km/h (1 Bft) S 1,00 h 0,330 mm 660 W/m 8,8 C 21,9 C 9,3 km/h (2 Bft)
14/05/2008 11:00 22,3 C 45 % 1012,8 hPa 0,0 l/m 7,8 km/h (2 Bft) S 1,00 h 0,457 mm 755 W/m 9,7 C 22,3 C 13,5 km/h (3 Bft)
14/05/2008 12:00 22,6 C 43 % 1013,0 hPa 0,0 l/m 10,2 km/h (2 Bft) E 1,00 h 0,508 mm 838 W/m 9,4 C 22,6 C 16,2 km/h (3 Bft)
14/05/2008 13:00 22,8 C 41 % 1013,1 hPa 0,0 l/m 9,6 km/h (2 Bft) E 1,00 h 0,584 mm 818 W/m 8,9 C 22,8 C 15,0 km/h (3 Bft)
14/05/2008 14:00 23,0 C 41 % 1012,9 hPa 0,0 l/m 9,8 km/h (2 Bft) E 1,00 h 0,584 mm 810 W/m 8,9 C 23,0 C 14,8 km/h (3 Bft)
14/05/2008 15:00 22,9 C 41 % 1012,7 hPa 0,0 l/m 8,6 km/h (2 Bft) E 1,00 h 0,584 mm 758 W/m 8,9 C 22,9 C 13,5 km/h (3 Bft)
14/05/2008 16:00 22,1 C 53 % 1012,3 hPa 0,0 l/m 7,6 km/h (2 Bft) E 0,82 h 0,533 mm 494 W/m 12,1 C 22,1 C 11,2 km/h (2 Bft)
14/05/2008 17:00 19,8 C 64 % 1012,3 hPa 0,0 l/m 6,0 km/h (2 Bft) S 0,00 h 0,356 mm 243 W/m 12,8 C 19,8 C 8,6 km/h (2 Bft)
14/05/2008 18:00 20,0 C 61 % 1012,3 hPa 0,0 l/m 2,5 km/h (1 Bft) E 0,68 h 0,178 mm 262 W/m 12,1 C 20,0 C 4,4 km/h (1 Bft)
14/05/2008 19:00 19,9 C 61 % 1011,9 hPa 0,0 l/m 3,0 km/h (1 Bft) E 0,63 h 0,178 mm 124 W/m 12,2 C 19,9 C 4,8 km/h (1 Bft)
14/05/2008 20:00 17,3 C 74 % 1012,0 hPa 0,0 l/m 1,5 km/h (1 Bft) E 0,00 h 0,102 mm 24 W/m 12,6 C 17,3 C 2,5 km/h (1 Bft)
14/05/2008 21:00 16,0 C 79 % 1012,3 hPa 0,0 l/m 0,1 km/h (0 Bft) E 0,00 h 0,025 mm 0 W/m 12,3 C 16,0 C 0,3 km/h (0 Bft)
14/05/2008 22:00 15,6 C 81 % 1012,5 hPa 0,0 l/m 0,6 km/h (0 Bft) E 0,00 h 0,000 mm 0 W/m 12,3 C 15,6 C 1,1 km/h (1 Bft)
14/05/2008 23:00 15,2 C 81 % 1012,6 hPa 0,0 l/m 0,7 km/h (0 Bft) N-NE 0,00 h 0,025 mm 0 W/m 11,9 C 15,2 C 1,2 km/h (1 Bft)
15/05/2008 00:00 14,9 C 81 % 1012,5 hPa 0,0 l/m 0,8 km/h (0 Bft) N 0,00 h 0,025 mm 0 W/m 11,6 C 14,9 C 1,7 km/h (1 Bft)
15/05/2008 01:00 14,5 C 81 % 1012,4 hPa 0,0 l/m 1,1 km/h (0 Bft) N 0,00 h 0,025 mm 0 W/m 11,3 C 14,5 C 1,7 km/h (1 Bft)
15/05/2008 02:00 14,6 C 84 % 1012,1 hPa 0,0 l/m 0,0 km/h (0 Bft) N 0,00 h 0,025 mm 0 W/m 12,0 C 14,6 C 0,0 km/h (0 Bft)
15/05/2008 03:00 14,2 C 85 % 1011,9 hPa 0,0 l/m 0,5 km/h (0 Bft) N 0,00 h 0,025 mm 0 W/m 11,8 C 14,2 C 1,5 km/h (1 Bft)
15/05/2008 04:00 13,7 C 86 % 1011,9 hPa 0,0 l/m 0,2 km/h (0 Bft) N 0,00 h 0,025 mm 0 W/m 11,4 C 13,7 C 0,7 km/h (0 Bft)
15/05/2008 05:00 13,8 C 86 % 1011,9 hPa 0,0 l/m 0,3 km/h (0 Bft) N 0,00 h 0,025 mm 0 W/m 11,6 C 13,8 C 1,2 km/h (1 Bft)
15/05/2008 06:00 14,0 C 87 % 1012,2 hPa 0,0 l/m 0,2 km/h (0 Bft) N 0,00 h 0,000 mm 16 W/m 11,9 C 14,0 C 0,7 km/h (0 Bft)
15/05/2008 07:00 14,5 C 87 % 1012,6 hPa 0,0 l/m 0,2 km/h (0 Bft) N 0,00 h 0,000 mm 49 W/m 12,4 C 14,5 C 0,6 km/h (0 Bft)
15/05/2008 08:00 16,4 C 86 % 1012,9 hPa 0,0 l/m 2,4 km/h (1 Bft) NE 0,63 h 0,025 mm 274 W/m 14,0 C 16,4 C 4,1 km/h (1 Bft)
15/05/2008 09:00 17,2 C 81 % 1012,7 hPa 0,0 l/m 5,9 km/h (2 Bft) NE 0,05 h 0,152 mm 213 W/m 14,0 C 17,2 C 8,6 km/h (2 Bft)
15/05/2008 10:00 18,3 C 79 % 1012,7 hPa 0,0 l/m 6,6 km/h (2 Bft) E 0,63 h 0,127 mm 503 W/m 14,5 C 18,3 C 11,1 km/h (2 Bft)
15/05/2008 11:00 19,5 C 74 % 1013,0 hPa 0,0 l/m 9,4 km/h (2 Bft) E 1,00 h 0,279 mm 721 W/m 14,7 C 19,5 C 15,4 km/h (3 Bft)
15/05/2008 12:00 20,6 C 69 % 1013,0 hPa 0,0 l/m 9,5 km/h (2 Bft) E 1,00 h 0,457 mm 877 W/m 14,8 C 20,6 C 15,2 km/h (3 Bft)
15/05/2008 13:00 20,5 C 69 % 1012,9 hPa 0,0 l/m 8,9 km/h (2 Bft) E 0,98 h 0,559 mm 850 W/m 14,6 C 20,5 C 14,9 km/h (3 Bft)
15/05/2008 14:00 20,1 C 71 % 1012,9 hPa 0,0 l/m 10,1 km/h (2 Bft) E 0,90 h 0,533 mm 711 W/m 14,8 C 20,1 C 15,2 km/h (3 Bft)
15/05/2008 15:00 20,0 C 74 % 1012,7 hPa 0,0 l/m 9,8 km/h (2 Bft) E 0,57 h 0,457 mm 603 W/m 15,1 C 20,0 C 14,6 km/h (3 Bft)
15/05/2008 16:00 18,7 C 75 % 1012,5 hPa 0,0 l/m 7,0 km/h (2 Bft) E 0,13 h 0,381 mm 305 W/m 14,2 C 18,7 C 10,4 km/h (2 Bft)
15/05/2008 17:00 19,8 C 68 % 1012,0 hPa 0,0 l/m 3,6 km/h (1 Bft) E 0,78 h 0,203 mm 429 W/m 13,7 C 19,8 C 6,8 km/h (2 Bft)
15/05/2008 18:00 18,8 C 74 % 1011,8 hPa 0,0 l/m 4,0 km/h (1 Bft) E 0,62 h 0,279 mm 241 W/m 14,1 C 18,8 C 6,7 km/h (2 Bft)
15/05/2008 19:00 17,4 C 80 % 1011,7 hPa 0,0 l/m 2,3 km/h (1 Bft) S-SE 0,00 h 0,152 mm 66 W/m 13,9 C 17,4 C 4,2 km/h (1 Bft)
15/05/2008 20:00 16,1 C 85 % 1011,7 hPa 0,0 l/m 1,0 km/h (0 Bft) E 0,10 h 0,051 mm 23 W/m 13,6 C 16,1 C 2,0 km/h (1 Bft)
15/05/2008 21:00 15,3 C 87 % 1011,5 hPa 0,0 l/m 1,2 km/h (1 Bft) E 0,00 h 0,025 mm 0 W/m 13,2 C 15,3 C 1,9 km/h (1 Bft)
15/05/2008 22:00 15,1 C 89 % 1012,1 hPa 0,0 l/m 0,1 km/h (0 Bft) E 0,00 h 0,000 mm 0 W/m 13,2 C 15,1 C 0,1 km/h (0 Bft)
15/05/2008 23:00 14,3 C 90 % 1011,9 hPa 0,0 l/m 0,0 km/h (0 Bft) N 0,00 h 0,025 mm 0 W/m 12,7 C 14,3 C 0,0 km/h (0 Bft)
16/05/2008 00:00 13,9 C 90 % 1012,1 hPa 0,0 l/m 0,4 km/h (0 Bft) E 0,00 h 0,025 mm 0 W/m 12,3 C 13,9 C 0,9 km/h (0 Bft)
16/05/2008 01:00 14,0 C 91 % 1012,1 hPa 0,0 l/m 0,5 km/h (0 Bft) E 0,00 h 0,025 mm 0 W/m 12,6 C 14,0 C 1,1 km/h (1 Bft)
16/05/2008 02:00 14,2 C 92 % 1011,8 hPa 0,0 l/m 2,8 km/h (1 Bft) E 0,00 h 0,000 mm 0 W/m 12,9 C 14,2 C 4,1 km/h (1 Bft)
16/05/2008 03:00 13,9 C 92 % 1011,6 hPa 0,0 l/m 0,4 km/h (0 Bft) N-NO 0,00 h 0,025 mm 0 W/m 12,7 C 13,9 C 1,0 km/h (0 Bft)
16/05/2008 04:00 13,8 C 92 % 1011,1 hPa 0,0 l/m 0,5 km/h (0 Bft) N-NO 0,00 h 0,000 mm 0 W/m 12,5 C 13,8 C 1,7 km/h (1 Bft)
16/05/2008 05:00 13,3 C 92 % 1010,3 hPa 0,0 l/m 1,5 km/h (1 Bft) N-NO 0,00 h 0,000 mm 0 W/m 12,0 C 13,3 C 2,9 km/h (1 Bft)
16/05/2008 06:00 13,0 C 92 % 1009,9 hPa 0,0 l/m 1,3 km/h (1 Bft) N-NO 0,10 h 0,000 mm 26 W/m 11,7 C 13,0 C 2,5 km/h (1 Bft)
16/05/2008 07:00 14,0 C 91 % 1010,4 hPa 0,0 l/m 4,2 km/h (1 Bft) N-NO 0,25 h 0,025 mm 107 W/m 12,5 C 14,0 C 6,4 km/h (2 Bft)
16/05/2008 08:00 15,9 C 83 % 1011,1 hPa 0,0 l/m 2,6 km/h (1 Bft) N-NE 0,23 h 0,051 mm 182 W/m 12,9 C 15,9 C 5,0 km/h (1 Bft)
16/05/2008 09:00 16,6 C 86 % 1011,3 hPa 0,0 l/m 7,3 km/h (2 Bft) E-NE 0,00 h 0,102 mm 122 W/m 14,2 C 16,6 C 10,1 km/h (2 Bft)
16/05/2008 10:00 16,8 C 87 % 1011,0 hPa 0,0 l/m 1,8 km/h (1 Bft) NE 0,00 h 0,076 mm 142 W/m 14,7 C 16,8 C 3,3 km/h (1 Bft)
16/05/2008 11:00 16,7 C 90 % 1010,6 hPa 0,6 l/m 0,7 km/h (0 Bft) NE 0,00 h 0,076 mm 124 W/m 15,0 C 16,7 C 1,2 km/h (1 Bft)
16/05/2008 12:00 16,5 C 92 % 1010,5 hPa 0,2 l/m 3,2 km/h (1 Bft) SO 0,00 h 0,076 mm 91 W/m 15,3 C 16,5 C 4,7 km/h (1 Bft)
16/05/2008 13:00 16,5 C 93 % 1011,1 hPa 1,6 l/m 1,9 km/h (1 Bft) N 0,00 h 0,051 mm 96 W/m 15,4 C 16,5 C 3,2 km/h (1 Bft)
16/05/2008 14:00 15,3 C 94 % 1010,7 hPa 0,2 l/m 2,3 km/h (1 Bft) N-NE 0,00 h 0,051 mm 66 W/m 14,4 C 15,3 C 4,5 km/h (1 Bft)
16/05/2008 15:00 15,0 C 94 % 1010,5 hPa 0,0 l/m 3,1 km/h (1 Bft) N-NE 0,00 h 0,051 mm 58 W/m 14,0 C 15,0 C 5,0 km/h (1 Bft)
16/05/2008 16:00 14,7 C 93 % 1009,7 hPa 0,0 l/m 3,1 km/h (1 Bft) N 0,00 h 0,025 mm 38 W/m 13,7 C 14,7 C 5,6 km/h (1 Bft)
16/05/2008 17:00 14,7 C 92 % 1009,2 hPa 0,0 l/m 2,2 km/h (1 Bft) N-NO 0,00 h 0,025 mm 44 W/m 13,4 C 14,7 C 4,3 km/h (1 Bft)
16/05/2008 18:00 14,8 C 90 % 1009,0 hPa 1,2 l/m 4,5 km/h (1 Bft) N 0,00 h 0,025 mm 32 W/m 13,2 C 14,8 C 7,0 km/h (2 Bft)
16/05/2008 19:00 14,3 C 91 % 1008,5 hPa 0,0 l/m 4,8 km/h (1 Bft) N 0,00 h 0,025 mm 59 W/m 12,9 C 14,3 C 9,0 km/h (2 Bft)
16/05/2008 20:00 14,0 C 92 % 1008,1 hPa 0,0 l/m 1,9 km/h (1 Bft) E-SE 0,00 h 0,051 mm 19 W/m 12,7 C 14,0 C 3,6 km/h (1 Bft)
16/05/2008 21:00 13,7 C 92 % 1008,1 hPa 0,0 l/m 4,2 km/h (1 Bft) O-SO 0,00 h 0,025 mm 0 W/m 12,4 C 13,7 C 5,4 km/h (1 Bft)
16/05/2008 22:00 13,6 C 93 % 1008,3 hPa 0,0 l/m 4,3 km/h (1 Bft) S-SO 0,00 h 0,000 mm 0 W/m 12,4 C 13,6 C 5,3 km/h (1 Bft)
16/05/2008 23:00 13,5 C 93 % 1008,3 hPa 0,0 l/m 2,9 km/h (1 Bft) O 0,00 h 0,025 mm 0 W/m 12,4 C 13,5 C 4,1 km/h (1 Bft)
17/05/2008 00:00 13,4 C 93 % 1008,0 hPa 0,0 l/m 2,0 km/h (1 Bft) N-NO 0,00 h 0,025 mm 0 W/m 12,3 C 13,4 C 3,1 km/h (1 Bft)
17/05/2008 01:00 13,5 C 93 % 1008,0 hPa 0,0 l/m 3,3 km/h (1 Bft) O-NO 0,00 h 0,000 mm 0 W/m 12,4 C 13,5 C 5,1 km/h (1 Bft)
17/05/2008 02:00 13,9 C 93 % 1007,8 hPa 0,0 l/m 4,3 km/h (1 Bft) NO 0,00 h 0,025 mm 0 W/m 12,7 C 13,9 C 5,8 km/h (2 Bft)
17/05/2008 03:00 14,1 C 93 % 1008,1 hPa 0,2 l/m 0,8 km/h (0 Bft) S 0,00 h 0,025 mm 0 W/m 13,0 C 14,1 C 1,7 km/h (1 Bft)
17/05/2008 04:00 14,1 C 92 % 1008,3 hPa 0,2 l/m 3,0 km/h (1 Bft) O-NO 0,00 h 0,000 mm 0 W/m 12,9 C 14,1 C 4,3 km/h (1 Bft)
17/05/2008 05:00 13,7 C 92 % 1006,9 hPa 0,0 l/m 1,4 km/h (1 Bft) O-NO 0,00 h 0,025 mm 0 W/m 12,4 C 13,7 C 3,4 km/h (1 Bft)
17/05/2008 06:00 13,6 C 93 % 1005,8 hPa 0,0 l/m 3,0 km/h (1 Bft) N 0,00 h 0,000 mm 21 W/m 12,5 C 13,6 C 5,3 km/h (1 Bft)
17/05/2008 07:00 14,6 C 93 % 1005,3 hPa 0,0 l/m 3,6 km/h (1 Bft) NO 0,00 h 0,025 mm 47 W/m 13,5 C 14,6 C 5,2 km/h (1 Bft)
17/05/2008 08:00 15,0 C 93 % 1007,2 hPa 0,0 l/m 6,1 km/h (2 Bft) E 0,00 h 0,025 mm 27 W/m 13,7 C 15,0 C 9,8 km/h (2 Bft)
17/05/2008 09:00 15,7 C 93 % 1007,7 hPa 1,2 l/m 3,1 km/h (1 Bft) N 0,00 h 0,025 mm 43 W/m 14,6 C 15,7 C 5,2 km/h (1 Bft)
17/05/2008 10:00 16,3 C 94 % 1007,2 hPa 1,2 l/m 5,0 km/h (1 Bft) N-NO 0,00 h 0,025 mm 120 W/m 15,2 C 16,3 C 8,3 km/h (2 Bft)
17/05/2008 11:00 16,2 C 95 % 1007,2 hPa 0,0 l/m 5,8 km/h (2 Bft) SO 0,00 h 0,076 mm 81 W/m 15,3 C 16,2 C 9,0 km/h (2 Bft)
17/05/2008 12:00 17,2 C 93 % 1007,1 hPa 0,0 l/m 1,0 km/h (0 Bft) N-NO 0,00 h 0,051 mm 185 W/m 16,1 C 17,2 C 2,6 km/h (1 Bft)
17/05/2008 13:00 18,4 C 91 % 1006,6 hPa 0,0 l/m 1,8 km/h (1 Bft) N 0,00 h 0,102 mm 360 W/m 17,0 C 18,4 C 4,3 km/h (1 Bft)
17/05/2008 14:00 18,3 C 87 % 1006,3 hPa 9,8 l/m 2,5 km/h (1 Bft) NE 0,00 h 0,203 mm 127 W/m 16,1 C 18,3 C 4,3 km/h (1 Bft)
17/05/2008 15:00 17,6 C 94 % 1006,1 hPa 0,0 l/m 1,7 km/h (1 Bft) N 0,00 h 0,076 mm 245 W/m 16,6 C 17,6 C 4,5 km/h (1 Bft)
17/05/2008 16:00 17,2 C 93 % 1006,0 hPa 0,0 l/m 0,8 km/h (0 Bft) N 0,00 h 0,127 mm 103 W/m 16,1 C 17,2 C 2,5 km/h (1 Bft)
17/05/2008 17:00 17,3 C 94 % 1005,7 hPa 0,0 l/m 2,4 km/h (1 Bft) N 0,00 h 0,051 mm 123 W/m 16,3 C 17,3 C 4,6 km/h (1 Bft)
17/05/2008 18:00 16,7 C 94 % 1005,7 hPa 0,0 l/m 5,0 km/h (1 Bft) E 0,00 h 0,076 mm 119 W/m 15,7 C 16,7 C 8,1 km/h (2 Bft)
17/05/2008 19:00 16,5 C 94 % 1005,6 hPa 0,2 l/m 1,0 km/h (0 Bft) E-SE 0,00 h 0,076 mm 28 W/m 15,6 C 16,5 C 2,1 km/h (1 Bft)
17/05/2008 20:00 16,1 C 95 % 1005,7 hPa 0,6 l/m 2,3 km/h (1 Bft) O 0,00 h 0,025 mm 0 W/m 15,3 C 16,1 C 3,7 km/h (1 Bft)
17/05/2008 21:00 15,7 C 95 % 1005,8 hPa 1,6 l/m 4,7 km/h (1 Bft) O 0,00 h 0,000 mm 0 W/m 14,9 C 15,7 C 6,3 km/h (2 Bft)
17/05/2008 22:00 15,3 C 95 % 1006,0 hPa 1,4 l/m 1,5 km/h (1 Bft) O-NO 0,00 h 0,000 mm 0 W/m 14,5 C 15,3 C 2,8 km/h (1 Bft)
17/05/2008 23:00 15,1 C 95 % 1005,7 hPa 0,0 l/m 6,6 km/h (2 Bft) O-NO 0,00 h 0,000 mm 0 W/m 14,3 C 15,1 C 8,9 km/h (2 Bft)
18/05/2008 00:00 14,5 C 96 % 1005,0 hPa 0,0 l/m 7,7 km/h (2 Bft) O-NO 0,00 h 0,025 mm 0 W/m 13,8 C 14,5 C 10,6 km/h (2 Bft)
18/05/2008 01:00 14,1 C 96 % 1004,9 hPa 0,2 l/m 2,1 km/h (1 Bft) O 0,00 h 0,025 mm 0 W/m 13,5 C 14,1 C 3,5 km/h (1 Bft)
18/05/2008 02:00 13,5 C 96 % 1004,8 hPa 0,2 l/m 4,6 km/h (1 Bft) O-NO 0,00 h 0,000 mm 0 W/m 12,9 C 13,5 C 6,4 km/h (2 Bft)
18/05/2008 03:00 13,2 C 96 % 1003,9 hPa 0,0 l/m 4,8 km/h (1 Bft) O-NO 0,00 h 0,000 mm 0 W/m 12,6 C 13,2 C 6,5 km/h (2 Bft)
18/05/2008 04:00 13,3 C 96 % 1003,5 hPa 0,4 l/m 1,4 km/h (1 Bft) O-NO 0,00 h 0,000 mm 0 W/m 12,7 C 13,3 C 2,6 km/h (1 Bft)
18/05/2008 05:00 13,3 C 96 % 1003,2 hPa 0,2 l/m 1,8 km/h (1 Bft) O-NO 0,00 h 0,000 mm 0 W/m 12,7 C 13,3 C 3,2 km/h (1 Bft)
18/05/2008 06:00 12,9 C 97 % 1002,6 hPa 0,0 l/m 1,8 km/h (1 Bft) O-NO 0,00 h 0,000 mm 17 W/m 12,4 C 12,9 C 2,7 km/h (1 Bft)
18/05/2008 07:00 13,5 C 97 % 1002,8 hPa 0,0 l/m 0,8 km/h (0 Bft) O-NO 0,42 h 0,000 mm 137 W/m 13,0 C 13,5 C 1,1 km/h (0 Bft)
18/05/2008 08:00 15,2 C 96 % 1002,7 hPa 0,0 l/m 1,2 km/h (1 Bft) S 1,00 h 0,076 mm 362 W/m 14,6 C 15,2 C 2,5 km/h (1 Bft)
18/05/2008 09:00 16,8 C 90 % 1002,9 hPa 0,0 l/m 3,5 km/h (1 Bft) E-NE 0,75 h 0,178 mm 461 W/m 15,1 C 16,8 C 5,4 km/h (1 Bft)
18/05/2008 10:00 18,4 C 81 % 1002,7 hPa 0,0 l/m 4,5 km/h (1 Bft) E 0,80 h 0,254 mm 649 W/m 15,0 C 18,4 C 7,6 km/h (2 Bft)
18/05/2008 11:00 19,6 C 74 % 1002,4 hPa 0,2 l/m 5,5 km/h (1 Bft) E 1,00 h 0,381 mm 824 W/m 14,8 C 19,6 C 8,8 km/h (2 Bft)
18/05/2008 12:00 21,1 C 69 % 1002,3 hPa 0,0 l/m 8,2 km/h (2 Bft) E 1,00 h 0,483 mm 941 W/m 15,0 C 21,1 C 12,7 km/h (3 Bft)
18/05/2008 13:00 20,5 C 73 % 1002,1 hPa 0,0 l/m 8,7 km/h (2 Bft) E 0,40 h 0,584 mm 532 W/m 15,4 C 20,5 C 13,0 km/h (3 Bft)
18/05/2008 14:00 19,5 C 76 % 1001,9 hPa 0,0 l/m 8,1 km/h (2 Bft) S-SE 0,12 h 0,330 mm 333 W/m 15,1 C 19,5 C 13,5 km/h (3 Bft)
18/05/2008 15:00 19,2 C 78 % 1001,9 hPa 0,0 l/m 5,1 km/h (1 Bft) E-NE 0,00 h 0,254 mm 231 W/m 15,2 C 19,2 C 8,1 km/h (2 Bft)
18/05/2008 16:00 18,3 C 84 % 1002,0 hPa 0,0 l/m 10,3 km/h (2 Bft) E-NE 0,17 h 0,152 mm 192 W/m 15,6 C 18,3 C 14,3 km/h (3 Bft)
18/05/2008 17:00 18,5 C 80 % 1002,5 hPa 0,0 l/m 8,8 km/h (2 Bft) E-NE 0,18 h 0,127 mm 277 W/m 14,9 C 18,5 C 12,4 km/h (3 Bft)
18/05/2008 18:00 18,7 C 79 % 1002,3 hPa 0,0 l/m 7,2 km/h (2 Bft) NE 0,40 h 0,178 mm 222 W/m 15,0 C 18,7 C 10,3 km/h (2 Bft)
18/05/2008 19:00 18,1 C 83 % 1002,3 hPa 0,0 l/m 3,5 km/h (1 Bft) E-NE 0,48 h 0,152 mm 120 W/m 15,2 C 18,1 C 5,7 km/h (1 Bft)
18/05/2008 20:00 17,0 C 86 % 1002,6 hPa 0,0 l/m 0,8 km/h (0 Bft) E-NE 0,05 h 0,076 mm 29 W/m 14,7 C 17,0 C 1,8 km/h (1 Bft)
18/05/2008 21:00 16,0 C 89 % 1003,4 hPa 0,0 l/m 0,0 km/h (0 Bft) E-NE 0,00 h 0,025 mm 0 W/m 14,1 C 16,0 C 0,7 km/h (0 Bft)
18/05/2008 22:00 15,3 C 90 % 1003,4 hPa 0,0 l/m 1,0 km/h (0 Bft) E-NE 0,00 h 0,000 mm 0 W/m 13,6 C 15,3 C 1,7 km/h (1 Bft)
18/05/2008 23:00 15,2 C 91 % 1003,5 hPa 0,0 l/m 2,2 km/h (1 Bft) E-NE 0,00 h 0,025 mm 0 W/m 13,8 C 15,2 C 4,0 km/h (1 Bft)
Min-Date _ 12/05/08 12/05/08 18/05/08 - 12/05/08 - - - - 14/05/08 12/05/08 12/05/08
_ Min-Heure 23:18 11:41 14:30 - 00:00 - - - - 06:31 23:18 00:01
Minimum _ 12,4 C 34 % 1001,8 hPa - 0,0 km/h (0 Bft) - - - - 4,9 C 12,4 C 0,0 km/h (0 Bft)
Max-Date _ 14/05/08 18/05/08 12/05/08 17/05/08 12/05/08 - 12/05/08 12/05/08 18/05/08 17/05/08 14/05/08 12/05/08
_ Max-Heure 14:21 05:32 20:45 14:29 12:24 - 10:18 12:00 13:34 13:26 14:21 13:29
Maximum _ 23,9 C 100 % 1013,7 hPa 9,8 l/m 37,0 km/h
E-NE (5 Bft)
- 0,02 h 0,610 mm 1225 W/m 17,7 C 23,9 C 57,9 km/h
E-NE (7 Bft)
Moyenne _ 16,3 C 78 % 1009,7 hPa #24,4 l/m 4,8 km/h (1 Bft) E #33:11 h #20,882 mm 272 W/m 12,0 C 16,3 C 7,4 km/h (2 Bft)
Roquefort les pins